createdAt,value
2022-12-05T00:04:08.545Z,5.30
2022-12-05T00:09:13.291Z,5.40
2022-12-05T00:14:17.364Z,5.30
2022-12-05T00:19:20.395Z,5.30
2022-12-05T00:24:23.500Z,5.30
2022-12-05T00:29:26.480Z,5.30
2022-12-05T00:34:29.549Z,5.20
2022-12-05T00:39:32.640Z,5.20
2022-12-05T00:44:35.625Z,5.20
2022-12-05T00:49:38.666Z,5.20
2022-12-05T00:54:41.632Z,5.20
2022-12-05T00:59:44.884Z,5.20
2022-12-05T01:04:49.878Z,5.20
2022-12-05T01:09:52.937Z,5.20
2022-12-05T01:14:56.055Z,5.20
2022-12-05T01:19:59.349Z,5.20
2022-12-05T01:25:03.192Z,5.20
2022-12-05T01:30:06.962Z,5.20
2022-12-05T01:35:10.438Z,5.30
2022-12-05T01:40:13.493Z,5.30
2022-12-05T01:45:47.689Z,5.20
2022-12-05T01:50:51.609Z,5.30
2022-12-05T01:55:55.391Z,5.30
2022-12-05T02:00:58.597Z,5.30
2022-12-05T02:06:03.552Z,5.30
2022-12-05T02:11:08.697Z,5.30
2022-12-05T02:16:36.400Z,5.30
2022-12-05T02:21:42.208Z,5.30
2022-12-05T02:26:54.397Z,5.20
2022-12-05T02:32:34.838Z,5.20
2022-12-05T02:38:04.166Z,5.20
2022-12-05T02:43:25.056Z,5.20
2022-12-05T02:48:29.501Z,5.20
2022-12-05T02:53:33.160Z,5.20
2022-12-05T02:58:52.438Z,5.20
2022-12-05T03:03:56.673Z,5.20
2022-12-05T03:09:05.425Z,5.20
2022-12-05T03:14:13.972Z,5.20
2022-12-05T03:19:25.907Z,5.20
2022-12-05T03:24:30.191Z,5.20
2022-12-05T03:29:56.518Z,5.20
2022-12-05T03:35:07.408Z,5.20
2022-12-05T03:40:40.006Z,5.10
2022-12-05T03:46:18.001Z,5.10
2022-12-05T03:51:23.679Z,5.20
2022-12-05T03:56:41.928Z,5.20
2022-12-05T04:01:47.295Z,5.10
2022-12-05T04:06:54.785Z,5.20
2022-12-05T04:12:12.765Z,5.10
2022-12-05T04:17:53.469Z,5.10
2022-12-05T04:22:57.296Z,5.10
2022-12-05T04:28:21.474Z,5.00
2022-12-05T04:33:43.228Z,5.00
2022-12-05T04:38:55.500Z,4.90
2022-12-05T04:44:02.212Z,4.70
2022-12-05T04:49:08.921Z,4.70
2022-12-05T04:54:31.187Z,4.70
2022-12-05T04:59:34.968Z,4.70
2022-12-05T05:04:47.119Z,4.70
2022-12-05T05:09:50.143Z,4.70
2022-12-05T05:14:53.327Z,4.70
2022-12-05T05:20:19.850Z,4.50
2022-12-05T05:25:25.412Z,4.50
2022-12-05T05:30:28.424Z,4.10
2022-12-05T05:35:31.399Z,4.20
2022-12-05T05:40:37.793Z,3.90
2022-12-05T05:45:40.722Z,3.90
2022-12-05T05:50:43.704Z,3.80
2022-12-05T05:55:47.311Z,3.90
2022-12-05T06:00:50.473Z,3.90
2022-12-05T06:05:58.632Z,3.90
2022-12-05T06:11:09.374Z,3.80
2022-12-05T06:16:14.705Z,3.90
2022-12-05T06:21:18.138Z,3.80
2022-12-05T06:26:22.378Z,3.80
2022-12-05T06:31:31.946Z,3.80
2022-12-05T06:36:35.020Z,3.80
2022-12-05T06:41:38.009Z,3.70
2022-12-05T06:46:41.045Z,3.70
2022-12-05T06:51:44.569Z,3.60
2022-12-05T06:56:47.638Z,3.50
2022-12-05T07:01:50.778Z,3.40
2022-12-05T07:06:56.089Z,3.50
2022-12-05T07:11:59.135Z,3.50
2022-12-05T07:17:02.255Z,3.50
2022-12-05T07:22:07.437Z,3.50
2022-12-05T07:27:15.463Z,3.60
2022-12-05T07:32:18.607Z,3.60
2022-12-05T07:37:21.674Z,3.60
2022-12-05T07:42:24.824Z,3.60
2022-12-05T07:47:29.640Z,3.70
2022-12-05T07:52:32.711Z,3.70
2022-12-05T07:57:35.895Z,3.80
2022-12-05T08:02:40.858Z,3.80
2022-12-05T08:07:44.202Z,3.80
2022-12-05T08:12:47.257Z,3.90
2022-12-05T08:17:50.252Z,3.90
2022-12-05T08:22:54.360Z,3.90
2022-12-05T08:27:57.428Z,4.00
2022-12-05T08:33:00.513Z,4.10
2022-12-05T08:38:03.561Z,4.10
2022-12-05T08:43:06.617Z,4.10
2022-12-05T08:48:09.618Z,4.20
2022-12-05T08:53:12.874Z,4.30
2022-12-05T08:58:15.958Z,4.30
2022-12-05T09:03:18.991Z,4.40
2022-12-05T09:08:22.052Z,4.40
2022-12-05T09:13:25.171Z,4.50
2022-12-05T09:18:28.277Z,4.60
2022-12-05T09:23:31.350Z,4.70
2022-12-05T09:28:35.488Z,4.70
2022-12-05T09:33:39.832Z,4.70
2022-12-05T09:38:43.389Z,4.80
2022-12-05T09:43:54.792Z,4.90
2022-12-05T09:49:00.277Z,4.90
2022-12-05T09:54:04.252Z,5.00
2022-12-05T09:59:17.440Z,5.10
2022-12-05T10:04:33.751Z,5.10
2022-12-05T10:10:01.663Z,5.20
2022-12-05T10:15:10.768Z,5.20
2022-12-05T10:20:24.930Z,5.30
2022-12-05T10:25:31.618Z,5.40
2022-12-05T10:30:37.195Z,5.40
2022-12-05T10:35:42.068Z,5.50
2022-12-05T10:40:50.262Z,5.60
2022-12-05T10:45:53.695Z,5.60
2022-12-05T10:50:58.316Z,5.70
2022-12-05T10:56:29.446Z,5.70
2022-12-05T11:01:25.935Z,5.70
2022-12-05T11:06:32.523Z,5.80
2022-12-05T11:11:35.827Z,5.80
2022-12-05T11:16:40.248Z,5.70
2022-12-05T11:21:44.243Z,5.50
2022-12-05T11:26:47.270Z,5.40
2022-12-05T11:31:53.234Z,5.50
2022-12-05T11:37:05.272Z,5.60
2022-12-05T11:42:29.885Z,5.20
2022-12-05T11:47:46.788Z,5.20
2022-12-05T11:53:22.231Z,5.30
2022-12-05T11:58:53.151Z,5.20
2022-12-05T12:04:37.666Z,5.20
2022-12-05T12:09:52.764Z,5.30
2022-12-05T12:15:33.529Z,5.40
2022-12-05T12:20:48.458Z,5.40
2022-12-05T12:26:19.941Z,5.50
2022-12-05T12:31:53.006Z,5.40
2022-12-05T12:37:38.066Z,5.40
2022-12-05T12:42:57.038Z,5.40
2022-12-05T12:48:15.154Z,5.20
2022-12-05T12:53:26.949Z,5.20
2022-12-05T12:58:52.599Z,5.10
2022-12-05T13:04:03.092Z,5.20
2022-12-05T13:09:15.274Z,5.30
2022-12-05T13:14:25.404Z,5.20
2022-12-05T13:19:39.167Z,5.10
2022-12-05T13:24:43.031Z,5.00
2022-12-05T13:29:53.921Z,5.20
2022-12-05T13:35:00.335Z,5.30
2022-12-05T13:40:22.791Z,5.20
2022-12-05T13:45:26.117Z,5.10
2022-12-05T13:50:46.822Z,5.20
2022-12-05T13:56:03.236Z,5.20
2022-12-05T14:01:24.939Z,5.40
2022-12-05T14:06:50.991Z,5.10
2022-12-05T14:12:17.328Z,5.30
2022-12-05T14:17:20.397Z,5.20
2022-12-05T14:22:46.587Z,5.20
2022-12-05T14:28:10.587Z,5.30
2022-12-05T14:33:18.310Z,5.20
2022-12-05T14:38:23.983Z,5.10
2022-12-05T14:43:34.807Z,5.20
2022-12-05T14:48:47.391Z,5.10
2022-12-05T14:53:53.392Z,5.20
2022-12-05T14:58:59.406Z,5.20
2022-12-05T15:04:08.632Z,5.20
2022-12-05T15:09:36.951Z,5.10
2022-12-05T15:15:07.914Z,5.00
2022-12-05T15:20:40.758Z,5.00
2022-12-05T15:25:44.139Z,5.00
2022-12-05T15:30:56.445Z,5.00
2022-12-05T15:36:00.869Z,5.00
2022-12-05T15:41:06.391Z,4.90
2022-12-05T15:46:25.454Z,4.90
2022-12-05T15:51:37.095Z,4.90
2022-12-05T15:56:46.416Z,4.80
2022-12-05T16:01:55.542Z,4.80
2022-12-05T16:07:03.785Z,4.80
2022-12-05T16:12:37.958Z,4.80
2022-12-05T16:17:55.468Z,4.70
2022-12-05T16:23:24.852Z,4.80
2022-12-05T16:28:34.522Z,4.80
2022-12-05T16:33:41.907Z,4.80
2022-12-05T16:38:47.182Z,4.70
2022-12-05T16:43:53.226Z,4.80
2022-12-05T16:49:18.004Z,4.70
2022-12-05T16:54:21.204Z,4.70
2022-12-05T16:59:29.431Z,4.60
2022-12-05T17:04:32.595Z,4.70
2022-12-05T17:09:36.040Z,4.50
2022-12-05T17:14:39.143Z,4.40
2022-12-05T17:19:42.282Z,4.30
2022-12-05T17:24:45.456Z,4.20
2022-12-05T17:29:48.661Z,4.00
2022-12-05T17:34:51.749Z,3.90
2022-12-05T17:39:54.945Z,3.80
2022-12-05T17:44:58.318Z,3.90
2022-12-05T17:50:02.155Z,3.80
2022-12-05T17:55:05.662Z,3.60
2022-12-05T18:00:09.831Z,3.50
2022-12-05T18:05:14.473Z,3.40
2022-12-05T18:10:20.137Z,3.50
2022-12-05T18:15:23.205Z,3.40
2022-12-05T18:20:27.710Z,3.40
2022-12-05T18:25:32.198Z,3.40
2022-12-05T18:30:35.315Z,3.50
2022-12-05T18:35:41.823Z,3.60
2022-12-05T18:40:44.912Z,3.40
2022-12-05T18:45:56.269Z,3.30
2022-12-05T18:51:11.318Z,3.20
2022-12-05T18:56:23.426Z,3.20
2022-12-05T19:01:28.869Z,3.30
2022-12-05T19:06:36.386Z,3.10
2022-12-05T19:11:47.132Z,3.20
2022-12-05T19:16:58.277Z,3.30
2022-12-05T19:22:03.230Z,3.30
2022-12-05T19:27:06.418Z,3.40
2022-12-05T19:32:10.170Z,3.30
2022-12-05T19:37:13.308Z,3.40
2022-12-05T19:42:16.446Z,3.40
2022-12-05T19:47:19.549Z,3.40
2022-12-05T19:52:22.656Z,3.50
2022-12-05T19:57:30.967Z,3.50
2022-12-05T20:02:39.723Z,3.50
2022-12-05T20:07:43.461Z,3.50
2022-12-05T20:12:46.685Z,3.40
2022-12-05T20:17:53.186Z,3.40
2022-12-05T20:22:56.574Z,3.40
2022-12-05T20:27:59.803Z,3.40
2022-12-05T20:33:03.000Z,3.40
2022-12-05T20:38:06.279Z,3.40
2022-12-05T20:43:09.427Z,3.40
2022-12-05T20:48:12.528Z,3.40
2022-12-05T20:53:15.753Z,3.40
2022-12-05T20:58:18.872Z,3.40
2022-12-05T21:03:21.905Z,3.30
2022-12-05T21:08:25.107Z,3.40
2022-12-05T21:13:28.448Z,3.40
2022-12-05T21:18:31.908Z,3.30
2022-12-05T21:23:35.231Z,3.30
2022-12-05T21:28:38.589Z,3.40
2022-12-05T21:33:43.406Z,3.40
2022-12-05T21:38:50.915Z,3.30
2022-12-05T21:43:58.612Z,3.20
2022-12-05T21:49:01.742Z,3.20
2022-12-05T21:54:04.836Z,3.30
2022-12-05T21:59:07.861Z,3.30
2022-12-05T22:04:11.027Z,3.30
2022-12-05T22:09:16.146Z,3.20
2022-12-05T22:14:19.316Z,3.30
2022-12-05T22:19:22.444Z,3.40
2022-12-05T22:24:25.497Z,3.10
2022-12-05T22:29:28.576Z,3.20
2022-12-05T22:34:31.699Z,3.20
2022-12-05T22:39:34.774Z,3.20
2022-12-05T22:44:37.725Z,3.30
2022-12-05T22:49:40.710Z,3.40
2022-12-05T22:54:43.792Z,3.40
2022-12-05T22:59:46.905Z,3.50
2022-12-05T23:04:50.076Z,3.50
2022-12-05T23:09:53.160Z,3.50
2022-12-05T23:14:56.308Z,3.50
2022-12-05T23:19:59.741Z,3.40
2022-12-05T23:25:03.034Z,3.40
2022-12-05T23:30:08.115Z,3.20
2022-12-05T23:35:12.015Z,3.30
2022-12-05T23:40:17.055Z,3.20
2022-12-05T23:45:20.111Z,3.30
2022-12-05T23:50:23.959Z,3.20
2022-12-05T23:55:27.106Z,3.20
